createdAt,value
2023-05-01T00:09:39.372Z,11.60
2023-05-01T00:14:41.782Z,11.50
2023-05-01T00:19:43.474Z,11.40
2023-05-01T00:24:47.908Z,11.30
2023-05-01T00:29:49.587Z,11.10
2023-05-01T00:34:51.462Z,11.00
2023-05-01T00:39:53.228Z,10.90
2023-05-01T00:44:54.902Z,10.90
2023-05-01T00:49:56.896Z,10.70
2023-05-01T00:54:59.172Z,10.70
2023-05-01T01:00:01.141Z,10.80
2023-05-01T01:05:05.130Z,10.80
2023-05-01T01:10:06.814Z,10.80
2023-05-01T01:21:15.240Z,10.70
2023-05-01T01:26:42.916Z,10.70
2023-05-01T01:32:01.271Z,10.70
2023-05-01T01:37:17.455Z,10.60
2023-05-01T01:42:21.322Z,10.70
2023-05-01T01:47:28.329Z,10.60
2023-05-01T01:52:30.505Z,10.50
2023-05-01T01:57:32.448Z,10.50
2023-05-01T02:02:37.237Z,10.40
2023-05-01T02:07:40.696Z,10.40
2023-05-01T02:12:44.590Z,10.40
2023-05-01T02:17:46.317Z,10.30
2023-05-01T02:22:49.001Z,10.30
2023-05-01T02:27:54.119Z,10.30
2023-05-01T02:32:57.376Z,10.30
2023-05-01T02:38:00.163Z,10.30
2023-05-01T02:43:04.942Z,10.30
2023-05-01T02:48:07.917Z,10.40
2023-05-01T02:53:10.163Z,10.30
2023-05-01T02:58:15.452Z,10.30
2023-05-01T03:03:17.359Z,10.20
2023-05-01T03:08:19.057Z,10.30
2023-05-01T03:13:21.856Z,10.40
2023-05-01T03:18:23.621Z,10.40
2023-05-01T03:23:25.676Z,10.40
2023-05-01T03:28:27.399Z,10.40
2023-05-01T03:33:29.128Z,10.30
2023-05-01T03:38:31.408Z,10.20
2023-05-01T03:43:33.108Z,10.20
2023-05-01T03:48:34.714Z,10.10
2023-05-01T03:53:36.870Z,10.10
2023-05-01T03:58:38.542Z,10.10
2023-05-01T04:03:40.877Z,10.00
2023-05-01T04:08:42.560Z,10.00
2023-05-01T04:13:44.241Z,10.00
2023-05-01T04:18:45.890Z,10.00
2023-05-01T04:23:47.455Z,9.90
2023-05-01T04:28:49.070Z,10.00
2023-05-01T04:33:50.833Z,10.10
2023-05-01T04:38:52.557Z,10.10
2023-05-01T04:43:54.193Z,10.20
2023-05-01T04:48:55.888Z,10.20
2023-05-01T04:53:57.951Z,10.30
2023-05-01T04:58:59.709Z,10.40
2023-05-01T05:04:01.502Z,10.40
2023-05-01T05:09:03.283Z,10.50
2023-05-01T05:14:05.093Z,10.60
2023-05-01T05:19:06.769Z,10.70
2023-05-01T05:24:08.550Z,10.80
2023-05-01T05:29:10.199Z,11.00
2023-05-01T05:34:12.138Z,11.10
2023-05-01T05:39:13.848Z,11.30
2023-05-01T05:44:15.554Z,11.40
2023-05-01T05:49:17.187Z,11.60
2023-05-01T05:54:18.806Z,11.70
2023-05-01T05:59:20.525Z,11.80
2023-05-01T06:04:22.158Z,11.90
2023-05-01T06:09:23.757Z,12.00
2023-05-01T06:14:25.923Z,12.20
2023-05-01T06:19:27.886Z,12.10
2023-05-01T06:24:29.456Z,12.20
2023-05-01T06:29:31.105Z,12.20
2023-05-01T06:34:32.729Z,12.30
2023-05-01T06:39:34.420Z,12.30
2023-05-01T06:44:36.044Z,12.40
2023-05-01T06:49:37.714Z,12.40
2023-05-01T06:54:39.327Z,12.40
2023-05-01T06:59:41.004Z,12.50
2023-05-01T07:04:44.431Z,12.50
2023-05-01T07:09:46.069Z,12.60
2023-05-01T07:14:47.970Z,12.60
2023-05-01T07:19:50.202Z,12.70
2023-05-01T07:24:51.959Z,12.70
2023-05-01T07:29:53.705Z,12.60
2023-05-01T07:34:55.403Z,12.70
2023-05-01T07:39:58.329Z,12.70
2023-05-01T07:45:00.350Z,12.80
2023-05-01T07:50:03.849Z,12.90
2023-05-01T07:55:05.776Z,13.00
2023-05-01T08:00:07.740Z,13.00
2023-05-01T08:05:09.944Z,13.10
2023-05-01T08:10:11.586Z,13.20
2023-05-01T08:15:14.228Z,13.30
2023-05-01T08:20:15.858Z,13.40
2023-05-01T08:25:17.440Z,13.60
2023-05-01T08:30:19.059Z,13.80
2023-05-01T08:35:20.781Z,13.80
2023-05-01T08:40:23.222Z,14.00
2023-05-01T08:45:25.818Z,14.10
2023-05-01T08:50:27.529Z,14.20
2023-05-01T08:55:30.076Z,14.60
2023-05-01T09:00:34.216Z,14.80
2023-05-01T09:05:36.027Z,15.00
2023-05-01T09:10:42.450Z,15.10
2023-05-01T09:15:44.560Z,15.60
2023-05-01T09:20:46.309Z,15.70
2023-05-01T09:25:49.100Z,16.00
2023-05-01T09:30:52.419Z,16.40
2023-05-01T09:35:55.240Z,16.60
2023-05-01T09:41:03.210Z,17.00
2023-05-01T09:46:10.482Z,17.00
2023-05-01T09:51:21.920Z,17.20
2023-05-01T09:56:24.330Z,17.60
2023-05-01T10:01:52.522Z,17.60
2023-05-01T10:06:54.574Z,17.70
2023-05-01T10:11:57.743Z,18.10
2023-05-01T10:16:59.692Z,17.80
2023-05-01T10:22:01.572Z,18.10
2023-05-01T10:27:05.567Z,18.10
2023-05-01T10:32:08.078Z,18.10
2023-05-01T10:37:12.873Z,18.30
2023-05-01T10:42:14.775Z,18.50
2023-05-01T10:47:27.864Z,18.70
2023-05-01T10:52:29.647Z,18.60
2023-05-01T10:57:44.488Z,18.80
2023-05-01T11:02:46.316Z,19.00
2023-05-01T11:08:07.954Z,19.10
2023-05-01T11:13:09.542Z,18.90
2023-05-01T11:18:12.234Z,18.90
2023-05-01T11:23:17.263Z,18.80
2023-05-01T11:28:19.535Z,18.30
2023-05-01T11:33:22.327Z,18.40
2023-05-01T11:38:24.157Z,18.20
2023-05-01T11:43:26.764Z,18.10
2023-05-01T11:48:28.950Z,18.00
2023-05-01T11:53:30.996Z,17.90
2023-05-01T11:58:34.787Z,18.00
2023-05-01T12:03:43.234Z,18.00
2023-05-01T12:08:47.352Z,17.90
2023-05-01T12:13:50.300Z,17.80
2023-05-01T12:18:53.258Z,17.80
2023-05-01T12:23:58.227Z,17.80
2023-05-01T12:29:03.976Z,17.70
2023-05-01T12:34:06.634Z,17.70
2023-05-01T12:39:09.286Z,17.60
2023-05-01T12:44:27.763Z,17.80
2023-05-01T12:49:30.873Z,17.90
2023-05-01T12:54:39.382Z,17.90
2023-05-01T12:59:41.975Z,18.10
2023-05-01T13:04:43.992Z,18.00
2023-05-01T13:09:51.989Z,18.10
2023-05-01T13:14:54.014Z,18.20
2023-05-01T13:19:57.026Z,18.50
2023-05-01T13:24:58.988Z,18.70
2023-05-01T13:30:01.188Z,18.40
2023-05-01T13:35:03.267Z,18.30
2023-05-01T13:40:05.219Z,18.10
2023-05-01T13:45:07.171Z,17.90
2023-05-01T13:50:09.503Z,17.90
2023-05-01T13:55:11.899Z,17.80
2023-05-01T14:00:19.742Z,17.70
2023-05-01T14:05:24.582Z,17.20
2023-05-01T14:10:27.825Z,16.80
2023-05-01T14:15:29.456Z,16.50
2023-05-01T14:20:31.417Z,16.50
2023-05-01T14:25:34.869Z,16.30
2023-05-01T14:30:37.549Z,16.50
2023-05-01T14:35:52.097Z,16.50
2023-05-01T14:40:54.138Z,16.60
2023-05-01T14:45:55.827Z,17.10
2023-05-01T14:50:59.578Z,17.30
2023-05-01T14:56:01.319Z,17.00
2023-05-01T15:01:05.725Z,16.80
2023-05-01T15:06:10.099Z,16.40
2023-05-01T15:11:13.075Z,16.40
2023-05-01T15:16:14.757Z,16.20
2023-05-01T15:21:16.636Z,16.10
2023-05-01T15:26:18.231Z,15.90
2023-05-01T15:31:19.835Z,15.80
2023-05-01T15:36:21.690Z,15.70
2023-05-01T15:41:23.320Z,15.40
2023-05-01T15:46:27.209Z,15.30
2023-05-01T15:51:31.218Z,15.20
2023-05-01T15:56:39.393Z,15.00
2023-05-01T16:01:41.357Z,15.00
2023-05-01T16:06:43.070Z,15.00
2023-05-01T16:11:44.809Z,14.80
2023-05-01T16:16:46.593Z,14.80
2023-05-01T16:21:50.371Z,14.70
2023-05-01T16:26:52.115Z,14.70
2023-05-01T16:31:53.775Z,14.70
2023-05-01T16:36:56.557Z,14.80
2023-05-01T16:41:58.405Z,14.70
2023-05-01T16:47:00.153Z,14.60
2023-05-01T16:52:04.207Z,14.70
2023-05-01T16:57:06.599Z,14.70
2023-05-01T17:02:08.301Z,14.80
2023-05-01T17:07:09.965Z,14.70
2023-05-01T17:12:11.524Z,14.60
2023-05-01T17:17:13.213Z,14.50
2023-05-01T17:22:16.009Z,14.20
2023-05-01T17:27:17.592Z,14.10
2023-05-01T17:32:33.038Z,14.00
2023-05-01T17:37:39.785Z,13.90
2023-05-01T17:42:41.920Z,13.80
2023-05-01T17:47:45.001Z,13.80
2023-05-01T17:52:46.726Z,13.80
2023-05-01T17:57:48.469Z,13.90
2023-05-01T18:02:50.139Z,13.80
2023-05-01T18:07:51.830Z,13.80
2023-05-01T18:12:53.524Z,13.60
2023-05-01T18:17:55.260Z,13.40
2023-05-01T18:22:56.845Z,13.30
2023-05-01T18:28:00.806Z,13.10
2023-05-01T18:33:02.669Z,13.00
2023-05-01T18:38:04.470Z,13.00
2023-05-01T18:43:06.103Z,12.90
2023-05-01T18:48:08.535Z,12.80
2023-05-01T18:53:10.337Z,12.50
2023-05-01T18:58:11.975Z,12.50
2023-05-01T19:03:13.858Z,12.20
2023-05-01T19:08:15.675Z,12.20
2023-05-01T19:13:17.553Z,12.40
2023-05-01T19:18:19.246Z,12.50
2023-05-01T19:23:20.919Z,12.50
2023-05-01T19:28:22.638Z,12.20
2023-05-01T19:33:24.363Z,12.30
2023-05-01T19:38:26.069Z,12.20
2023-05-01T19:43:27.702Z,12.20
2023-05-01T19:48:29.421Z,12.10
2023-05-01T19:53:31.167Z,12.00
2023-05-01T19:58:32.875Z,12.00
2023-05-01T20:03:34.641Z,11.90
2023-05-01T20:08:36.346Z,11.80
2023-05-01T20:13:38.047Z,11.70
2023-05-01T20:18:39.692Z,11.70
2023-05-01T20:23:41.335Z,11.50
2023-05-01T20:28:43.060Z,11.40
2023-05-01T20:33:44.820Z,11.30
2023-05-01T20:38:48.422Z,11.20
2023-05-01T20:43:50.090Z,11.20
2023-05-01T20:48:52.112Z,11.20
2023-05-01T20:53:54.267Z,11.00
2023-05-01T20:58:55.923Z,10.90
2023-05-01T21:03:58.655Z,10.90
2023-05-01T21:09:01.205Z,10.70
2023-05-01T21:14:09.042Z,10.50
2023-05-01T21:19:15.816Z,10.70
2023-05-01T21:24:24.980Z,10.50
2023-05-01T21:29:26.576Z,10.50
2023-05-01T21:34:28.251Z,10.30
2023-05-01T21:39:30.760Z,10.40
2023-05-01T21:44:32.410Z,10.20
2023-05-01T21:49:34.315Z,10.20
2023-05-01T21:54:36.529Z,10.20
2023-05-01T21:59:38.600Z,10.00
2023-05-01T22:04:40.308Z,9.90
2023-05-01T22:09:41.960Z,9.90
2023-05-01T22:14:47.463Z,9.80
2023-05-01T22:19:51.498Z,9.80
2023-05-01T22:24:53.190Z,9.80
2023-05-01T22:29:54.858Z,9.80
2023-05-01T22:34:56.703Z,9.60
2023-05-01T22:39:58.546Z,9.70
2023-05-01T22:45:00.360Z,9.60
2023-05-01T22:50:03.204Z,9.60
2023-05-01T22:55:05.180Z,9.60
2023-05-01T23:00:07.963Z,9.60
2023-05-01T23:05:10.373Z,9.70
2023-05-01T23:10:12.314Z,9.80
2023-05-01T23:15:16.850Z,9.90
2023-05-01T23:20:20.230Z,9.90
2023-05-01T23:25:28.311Z,10.00
2023-05-01T23:30:29.990Z,10.10
2023-05-01T23:35:31.718Z,10.10
2023-05-01T23:40:34.503Z,10.20
2023-05-01T23:45:36.252Z,10.20
2023-05-01T23:50:37.935Z,10.00
2023-05-01T23:55:39.708Z,10.30
